Time;durP1;ratioP1;P1;durP2;ratioP2;P2;SDS_P1;SDS_P2;PMS_P1;PMS_P2;Temp;Humidity;BMP_temperature;BMP_pressure;BME280_temperature;BME280_humidity;BME280_pressure;Samples;Min_cycle;Max_cycle;Signal;HPM_P1;HPM_P2
2022/07/15 00:02:13;;;;;;;8.43;4.63;;;;;;;19.07;51.48;94197.06;4833134;29;20047;-68
2022/07/15 00:04:40;;;;;;;8.23;4.55;;;;;;;18.89;51.26;94193.03;4837150;29;20415;-64
2022/07/15 00:07:07;;;;;;;7.60;4.57;;;;;;;18.92;51.17;94202.47;4808195;29;20054;-64
2022/07/15 00:12:19;;;;;;;7.37;4.30;;;;;;;18.99;50.04;94202.16;4833745;29;20052;-64
2022/07/15 00:14:46;;;;;;;8.38;4.25;;;;;;;19.05;50.20;94196.75;4829654;29;20514;-64
2022/07/15 00:17:12;;;;;;;8.05;4.45;;;;;;;19.08;50.14;94199.38;4836984;29;20566;-67
2022/07/15 00:19:39;;;;;;;7.18;4.60;;;;;;;19.13;50.31;94195.97;4840295;29;20070;-64
2022/07/15 00:22:06;;;;;;;9.70;4.30;;;;;;;19.06;50.03;94201.84;4838566;29;20042;-64
2022/07/15 00:24:33;;;;;;;7.93;4.40;;;;;;;19.05;49.65;94193.97;4829396;29;20038;-63
2022/07/15 00:27:02;;;;;;;7.53;3.92;;;;;;;18.96;49.16;94201.06;4839863;29;20052;-61
2022/07/15 00:29:30;;;;;;;6.80;4.43;;;;;;;18.87;48.88;94195.50;4840311;29;20054;-64
2022/07/15 00:31:57;;;;;;;10.15;6.15;;;;;;;18.82;48.93;94189.81;4823419;29;20060;-64
2022/07/15 00:34:24;;;;;;;12.15;4.53;;;;;;;18.65;48.57;94187.28;4832220;29;20610;-67
2022/07/15 00:36:50;;;;;;;7.97;3.90;;;;;;;18.55;48.82;94192.06;4840487;29;20045;-64
2022/07/15 00:39:17;;;;;;;8.60;4.57;;;;;;;18.64;49.17;94194.06;4839444;29;20056;-64
2022/07/15 00:41:44;;;;;;;7.53;4.13;;;;;;;18.59;49.17;94193.91;4828074;29;20041;-67
2022/07/15 00:44:11;;;;;;;7.82;4.28;;;;;;;18.55;49.09;94188.47;4838030;29;20058;-63
2022/07/15 00:46:39;;;;;;;7.15;4.18;;;;;;;18.58;48.81;94182.03;4828440;29;20348;-64
2022/07/15 00:49:09;;;;;;;8.20;4.30;;;;;;;18.64;48.91;94196.09;4839720;29;20053;-64
2022/07/15 00:51:39;;;;;;;10.02;4.10;;;;;;;18.63;48.96;94192.50;4840071;29;20041;-70
2022/07/15 00:54:10;;;;;;;7.72;3.92;;;;;;;18.64;48.79;94188.50;4839552;29;20068;-69
2022/07/15 00:56:41;;;;;;;7.40;4.05;;;;;;;18.63;48.93;94184.16;4840256;29;20041;-63
2022/07/15 00:59:09;;;;;;;7.38;4.03;;;;;;;18.63;48.92;94186.94;4839422;29;20075;-63
2022/07/15 01:01:37;;;;;;;8.20;4.60;;;;;;;18.65;48.88;94187.28;4837341;29;20054;-66
2022/07/15 01:04:05;;;;;;;6.25;4.20;;;;;;;18.31;50.70;94185.50;4833183;29;20132;-64
2022/07/15 01:06:32;;;;;;;6.43;4.10;;;;;;;18.49;49.42;94184.78;4839862;29;20045;-63
2022/07/15 01:08:59;;;;;;;6.70;4.07;;;;;;;18.49;48.76;94191.13;4840043;29;20058;-67
2022/07/15 01:11:30;;;;;;;9.82;4.30;;;;;;;18.55;48.64;94191.25;4838869;29;20947;-63
2022/07/15 01:14:01;;;;;;;8.63;4.20;;;;;;;18.47;48.94;94190.03;4834021;29;20039;-65
2022/07/15 01:16:28;;;;;;;8.02;4.15;;;;;;;18.28;50.25;94187.19;4803702;29;20066;-66
2022/07/15 01:18:55;;;;;;;6.97;4.50;;;;;;;17.66;52.42;94196.34;4816972;29;20396;-63
2022/07/15 01:21:23;;;;;;;8.35;4.60;;;;;;;17.50;53.45;94196.56;4833917;29;20056;-63
2022/07/15 01:23:49;;;;;;;9.20;4.70;;;;;;;17.43;53.46;94189.28;4827906;29;20046;-64
2022/07/15 01:26:16;;;;;;;8.03;4.50;;;;;;;17.45;53.27;94192.38;4836773;29;20440;-63
2022/07/15 01:28:44;;;;;;;7.22;4.28;;;;;;;17.69;52.64;94189.13;4839889;29;20064;-62
2022/07/15 01:31:10;;;;;;;10.30;4.90;;;;;;;17.77;52.44;94187.63;4835937;29;20052;-63
2022/07/15 01:33:38;;;;;;;6.18;4.10;;;;;;;17.84;52.00;94190.13;4827084;29;20068;-68
2022/07/15 01:36:05;;;;;;;6.97;4.40;;;;;;;17.68;52.54;94187.56;4835456;29;20450;-63
2022/07/15 01:38:32;;;;;;;11.10;4.63;;;;;;;17.43;52.87;94188.53;4813919;29;20049;-63
2022/07/15 01:41:14;;;;;;;13.15;5.00;;;;;;;17.57;52.50;94191.53;4839231;29;20599;-62
2022/07/15 01:43:40;;;;;;;10.85;5.00;;;;;;;17.33;53.44;94188.47;4842142;29;20049;-65
2022/07/15 01:46:07;;;;;;;7.95;4.60;;;;;;;17.50;52.98;94191.78;4842906;29;20057;-63
2022/07/15 01:51:19;;;;;;;9.13;4.33;;;;;;;17.43;52.89;94188.53;4835721;29;20069;-62
2022/07/15 01:53:46;;;;;;;8.40;4.35;;;;;;;17.48;52.56;94191.47;4843005;29;20045;-63
2022/07/15 01:56:12;;;;;;;8.23;4.63;;;;;;;17.43;52.73;94185.75;4842089;29;20046;-67
2022/07/15 01:58:39;;;;;;;9.30;4.40;;;;;;;17.33;52.95;94194.00;4842688;29;20046;-67
2022/07/15 02:01:07;;;;;;;9.38;4.70;;;;;;;17.27;52.98;94184.72;4842341;29;20056;-64
2022/07/15 02:03:34;;;;;;;9.13;4.97;;;;;;;17.21;53.44;94192.09;4837554;29;20660;-65
2022/07/15 02:06:01;;;;;;;8.57;4.90;;;;;;;17.13;53.46;94186.00;4842614;29;20109;-61
2022/07/15 02:08:28;;;;;;;7.90;4.70;;;;;;;17.00;53.85;94179.75;4842897;29;20076;-63
2022/07/15 02:10:55;;;;;;;7.70;4.97;;;;;;;16.99;53.97;94194.09;4842913;29;20073;-64
2022/07/15 02:13:21;;;;;;;8.50;4.70;;;;;;;16.90;54.05;94189.22;4842224;29;20045;-63
2022/07/15 02:15:48;;;;;;;9.03;4.90;;;;;;;16.88;54.19;94184.16;4812953;29;20050;-67
2022/07/15 02:18:15;;;;;;;7.80;4.88;;;;;;;16.77;54.72;94192.78;4814830;29;20076;-63
2022/07/15 02:20:42;;;;;;;9.15;4.90;;;;;;;16.48;54.80;94192.22;4824335;29;20042;-62
2022/07/15 02:23:09;;;;;;;8.35;4.80;;;;;;;16.56;55.14;94193.53;4830386;29;20038;-63
2022/07/15 02:25:36;;;;;;;84.28;45.13;;;;;;;16.63;54.94;94184.97;4835167;29;20041;-68
2022/07/15 02:28:05;;;;;;;12.67;7.80;;;;;;;16.69;54.70;94185.94;4825929;29;20389;-67
2022/07/15 02:30:38;;;;;;;9.48;5.90;;;;;;;16.73;54.62;94186.59;4842430;29;20053;-66
2022/07/15 02:33:06;;;;;;;7.63;5.10;;;;;;;16.68;54.92;94181.66;4829025;29;20483;-62
2022/07/15 02:35:33;;;;;;;7.35;4.88;;;;;;;16.54;55.44;94185.69;4835268;29;20415;-63
2022/07/15 02:38:00;;;;;;;8.05;4.43;;;;;;;16.56;55.05;94186.00;4842317;29;20044;-63
2022/07/15 02:40:28;;;;;;;7.57;4.57;;;;;;;16.65;54.72;94185.28;4841957;29;20842;-67
2022/07/15 02:42:56;;;;;;;6.40;4.60;;;;;;;16.72;54.46;94189.81;4842326;29;20050;-65
2022/07/15 02:45:24;;;;;;;8.45;4.40;;;;;;;16.73;54.90;94185.84;4841541;29;20440;-69
2022/07/15 02:47:52;;;;;;;8.70;4.72;;;;;;;16.58;55.06;94185.56;4842030;29;20389;-72
2022/07/15 02:50:20;;;;;;;9.70;4.97;;;;;;;16.52;55.43;94188.13;4829194;29;20057;-63
2022/07/15 02:52:47;;;;;;;8.47;4.87;;;;;;;16.57;55.42;94187.53;4842286;29;20049;-68
2022/07/15 02:55:15;;;;;;;7.95;4.70;;;;;;;16.53;55.60;94189.66;4840837;29;20097;-64
2022/07/15 02:57:42;;;;;;;8.90;4.78;;;;;;;16.60;55.35;94188.66;4841950;29;20042;-63
2022/07/15 03:00:12;;;;;;;8.27;4.70;;;;;;;16.70;54.68;94184.75;4841261;29;20064;-63
2022/07/15 03:02:39;;;;;;;9.23;4.90;;;;;;;16.73;55.69;94183.06;4842193;29;20053;-63
2022/07/15 03:05:07;;;;;;;9.87;4.93;;;;;;;16.50;56.70;94187.00;4841282;29;20049;-63
2022/07/15 03:07:34;;;;;;;8.20;4.60;;;;;;;16.67;56.36;94191.16;4837674;29;20077;-64
2022/07/15 03:10:01;;;;;;;7.80;4.60;;;;;;;16.46;56.90;94198.22;4831021;29;20117;-62
2022/07/15 03:12:29;;;;;;;7.30;4.80;;;;;;;16.07;58.13;94196.72;4828812;29;20050;-67
2022/07/15 03:14:55;;;;;;;6.82;4.65;;;;;;;16.21;57.52;94187.94;4812932;29;20047;-67
2022/07/15 03:17:22;;;;;;;7.40;4.80;;;;;;;16.44;57.00;94188.78;4805370;29;20057;-65
2022/07/15 03:19:49;;;;;;;9.55;4.90;;;;;;;16.60;56.84;94196.16;4825401;29;20550;-67
2022/07/15 03:22:16;;;;;;;8.88;4.55;;;;;;;16.68;56.39;94195.50;4829396;29;20060;-65
2022/07/15 03:24:43;;;;;;;8.23;4.50;;;;;;;16.71;56.10;94193.81;4827667;29;20049;-65
2022/07/15 03:27:09;;;;;;;8.43;4.70;;;;;;;16.71;56.24;94191.81;4840974;29;20072;-70
2022/07/15 03:29:36;;;;;;;10.30;4.90;;;;;;;16.47;56.86;94196.22;4841200;29;20423;-65
2022/07/15 03:32:05;;;;;;;9.75;4.72;;;;;;;16.51;56.46;94192.09;4831135;29;20058;-70
2022/07/15 03:34:32;;;;;;;7.07;5.00;;;;;;;16.56;55.94;94191.53;4830525;29;20411;-69
2022/07/15 03:36:59;;;;;;;9.07;4.88;;;;;;;16.57;56.26;94201.38;4841531;29;20064;-64
2022/07/15 03:39:25;;;;;;;6.95;4.78;;;;;;;16.03;59.54;94196.06;4840633;29;20829;-64
2022/07/15 03:41:52;;;;;;;10.33;5.20;;;;;;;15.96;59.34;94199.84;4841252;29;20522;-64
2022/07/15 03:44:19;;;;;;;9.35;5.05;;;;;;;16.12;58.15;94193.41;4840828;29;20076;-65
2022/07/15 03:46:46;;;;;;;8.35;4.82;;;;;;;16.34;57.59;94196.25;4840402;29;20044;-65
2022/07/15 03:49:14;;;;;;;6.97;4.80;;;;;;;16.45;57.69;94202.19;4822454;29;20043;-64
2022/07/15 03:51:42;;;;;;;10.25;5.20;;;;;;;16.45;57.76;94196.66;4838808;29;20109;-66
2022/07/15 03:54:09;;;;;;;9.47;5.30;;;;;;;16.54;57.64;94205.06;4840348;29;20068;-64
2022/07/15 03:56:36;;;;;;;7.82;4.82;;;;;;;16.62;57.46;94208.38;4839357;29;20489;-64
2022/07/15 03:59:03;;;;;;;7.18;4.80;;;;;;;16.61;56.98;94209.59;4827839;29;20044;-69
2022/07/15 04:01:30;;;;;;;8.48;4.90;;;;;;;16.60;57.03;94207.25;4838798;29;20064;-64
2022/07/15 04:03:57;;;;;;;9.65;5.03;;;;;;;16.70;56.48;94209.69;4839445;29;20431;-64
2022/07/15 04:06:24;;;;;;;7.30;5.00;;;;;;;16.78;56.45;94199.09;4823229;29;20048;-65
2022/07/15 04:08:52;;;;;;;8.00;5.10;;;;;;;16.52;57.25;94203.94;4824414;29;20135;-65
2022/07/15 04:11:18;;;;;;;8.63;5.50;;;;;;;16.61;57.25;94200.50;4824183;29;20121;-65
2022/07/15 04:13:46;;;;;;;7.68;5.35;;;;;;;16.49;57.38;94207.63;4840378;29;20038;-65
2022/07/15 04:16:13;;;;;;;9.38;5.50;;;;;;;16.48;57.19;94209.63;4825075;29;20118;-64
2022/07/15 04:18:41;;;;;;;9.07;5.40;;;;;;;16.57;56.68;94201.38;4829860;29;20048;-64
2022/07/15 04:21:08;;;;;;;9.57;5.20;;;;;;;16.84;55.75;94202.91;4839780;29;20049;-64
2022/07/15 04:23:34;;;;;;;10.15;4.95;;;;;;;16.91;55.16;94196.31;4830634;29;20426;-67
2022/07/15 04:26:02;;;;;;;9.00;4.88;;;;;;;17.05;54.90;94198.59;4836441;29;20046;-66
2022/07/15 04:28:40;;;;;;;9.48;5.22;;;;;;;16.94;55.03;94201.75;5051804;27;20393;-69
2022/07/15 04:31:06;;;;;;;9.00;5.38;;;;;;;17.14;54.23;94204.22;5027189;28;20042;-66
2022/07/15 04:33:33;;;;;;;9.40;5.20;;;;;;;17.21;54.24;94194.09;5026392;28;20050;-64
2022/07/15 04:36:00;;;;;;;9.38;5.40;;;;;;;17.15;54.09;94196.66;5027789;28;20402;-64
2022/07/15 04:38:26;;;;;;;10.02;5.20;;;;;;;17.28;53.66;94194.56;5026274;28;20887;-69
2022/07/15 04:40:53;;;;;;;9.93;5.60;;;;;;;17.38;53.21;94195.41;5027467;28;20037;-66
2022/07/15 04:43:20;;;;;;;10.25;5.38;;;;;;;17.49;52.74;94193.03;5025687;28;20053;-69
2022/07/15 04:45:47;;;;;;;8.93;5.13;;;;;;;17.50;52.56;94194.56;5026697;28;20052;-64
2022/07/15 04:50:59;;;;;;;8.32;5.20;;;;;;;17.69;52.48;94208.56;5027040;28;20429;-67
2022/07/15 04:53:26;;;;;;;11.43;5.50;;;;;;;17.62;51.73;94209.59;5026504;28;21682;-64
2022/07/15 04:55:53;;;;;;;9.07;5.40;;;;;;;16.71;53.82;94210.44;5026989;28;20042;-66
2022/07/15 04:58:20;;;;;;;7.60;4.70;;;;;;;17.46;52.27;94207.78;5026748;28;20053;-67
2022/07/15 05:00:46;;;;;;;8.85;5.25;;;;;;;17.88;50.89;94204.66;5023914;28;20449;-64
2022/07/15 05:03:14;;;;;;;11.60;5.50;;;;;;;17.63;51.43;94202.06;5026370;28;20057;-64
2022/07/15 05:05:44;;;;;;;9.73;5.10;;;;;;;18.10;51.04;94203.81;5026618;28;20069;-66
2022/07/15 05:08:11;;;;;;;9.73;5.25;;;;;;;17.71;50.97;94197.78;5026452;28;20387;-63
2022/07/15 05:10:38;;;;;;;10.13;5.30;;;;;;;18.19;49.98;94208.63;5026754;28;20152;-67
2022/07/15 05:13:04;;;;;;;9.27;5.28;;;;;;;17.96;50.67;94205.16;5026159;28;20041;-65
2022/07/15 05:15:31;;;;;;;8.10;4.93;;;;;;;17.80;50.57;94206.13;5025185;28;20121;-65
2022/07/15 05:17:58;;;;;;;9.55;5.30;;;;;;;18.41;49.13;94206.56;5026825;28;20052;-67
2022/07/15 05:20:26;;;;;;;8.95;4.90;;;;;;;18.59;48.80;94205.78;5026282;28;20495;-64
2022/07/15 05:22:52;;;;;;;9.53;5.00;;;;;;;18.82;48.17;94209.25;5025517;28;20050;-64
2022/07/15 05:25:19;;;;;;;8.23;4.93;;;;;;;19.00;47.56;94212.03;5026130;28;20041;-66
2022/07/15 05:27:47;;;;;;;9.18;5.25;;;;;;;19.05;47.42;94211.41;5026400;28;20056;-65
2022/07/15 05:30:17;;;;;;;8.23;4.75;;;;;;;19.20;47.37;94213.59;5026424;28;20041;-69
2022/07/15 05:32:44;;;;;;;9.80;5.35;;;;;;;19.46;46.79;94212.03;5026932;28;20135;-68
2022/07/15 05:35:14;;;;;;;9.03;5.20;;;;;;;19.50;46.62;94215.41;5024948;28;20127;-65
2022/07/15 05:37:42;;;;;;;7.80;5.07;;;;;;;20.22;45.18;94217.72;5025973;28;20120;-65
2022/07/15 05:40:10;;;;;;;8.80;5.20;;;;;;;19.42;45.92;94225.31;5011935;28;20056;-65
2022/07/15 05:42:39;;;;;;;8.65;5.10;;;;;;;20.66;44.43;94224.78;5013104;28;20060;-69
2022/07/15 05:45:07;;;;;;;7.40;4.90;;;;;;;21.82;41.54;94212.84;5012615;28;20052;-65
2022/07/15 05:47:33;;;;;;;9.03;5.10;;;;;;;22.29;41.33;94213.09;5012719;28;20457;-69
2022/07/15 05:50:00;;;;;;;7.47;5.10;;;;;;;23.77;38.16;94220.06;5012664;28;20556;-62
2022/07/15 05:52:27;;;;;;;6.97;5.05;;;;;;;24.62;36.16;94218.72;5012957;28;20044;-64
2022/07/15 05:54:54;;;;;;;9.90;4.70;;;;;;;27.01;32.05;94211.00;5012944;28;20044;-64
2022/07/15 05:57:21;;;;;;;9.55;5.00;;;;;;;27.35;30.23;94218.59;5012553;28;20050;-69
2022/07/15 05:59:48;;;;;;;8.10;5.47;;;;;;;24.13;35.98;94223.44;5013154;28;20049;-65
2022/07/15 06:02:15;;;;;;;8.00;5.10;;;;;;;25.86;33.89;94222.03;5012050;28;20052;-65
2022/07/15 06:04:42;;;;;;;11.07;4.63;;;;;;;27.65;29.75;94218.72;5012773;28;20522;-67
2022/07/15 06:07:09;;;;;;;7.00;4.70;;;;;;;25.28;34.19;94230.06;5009437;28;20045;-65
2022/07/15 06:09:35;;;;;;;7.07;4.22;;;;;;;27.98;30.10;94214.16;5012526;28;20052;-65
2022/07/15 06:12:02;;;;;;;7.83;4.47;;;;;;;27.02;31.64;94223.78;5012249;28;20066;-66
2022/07/15 06:14:29;;;;;;;8.65;4.22;;;;;;;28.35;29.84;94222.06;5012469;28;20072;-65
2022/07/15 06:17:03;;;;;;;8.93;3.95;;;;;;;29.53;27.74;94219.38;5012132;28;20123;-66
2022/07/15 06:19:30;;;;;;;7.20;4.70;;;;;;;24.94;33.56;94232.69;5011729;28;20054;-66
2022/07/15 06:21:57;;;;;;;10.38;4.75;;;;;;;24.10;35.74;94232.84;5012113;28;20053;-63
2022/07/15 06:24:24;;;;;;;7.60;4.97;;;;;;;25.20;33.60;94226.19;5011769;28;20057;-66
2022/07/15 06:26:51;;;;;;;9.77;4.57;;;;;;;25.84;32.93;94218.22;5012059;28;20497;-65
2022/07/15 06:29:19;;;;;;;7.57;4.60;;;;;;;27.00;31.34;94209.47;5011932;28;20045;-65
2022/07/15 06:31:45;;;;;;;10.18;4.50;;;;;;;29.23;27.44;94215.34;5012558;28;20482;-66
2022/07/15 06:34:12;;;;;;;7.30;4.22;;;;;;;29.53;27.45;94219.38;5011429;28;20034;-63
2022/07/15 06:36:39;;;;;;;6.00;4.47;;;;;;;29.27;27.86;94212.25;5011894;28;20483;-64
2022/07/15 06:39:05;;;;;;;7.57;4.32;;;;;;;29.96;26.35;94216.50;5009947;28;20065;-64
2022/07/15 06:41:33;;;;;;;9.25;4.30;;;;;;;29.87;27.28;94216.88;5011933;28;20065;-69
2022/07/15 06:44:01;;;;;;;8.60;4.47;;;;;;;29.13;28.07;94211.38;5013823;28;20060;-64
2022/07/15 06:46:28;;;;;;;7.70;3.90;;;;;;;30.92;26.05;94202.88;5010661;28;20751;-64
2022/07/15 06:48:54;;;;;;;8.50;4.50;;;;;;;29.43;27.21;94207.69;5016947;28;20095;-69
2022/07/15 06:51:22;;;;;;;6.18;3.83;;;;;;;31.41;24.72;94206.03;5010607;28;20042;-63
2022/07/15 06:53:48;;;;;;;6.85;3.65;;;;;;;32.35;22.92;94202.97;5011465;28;20060;-63
2022/07/15 06:56:15;;;;;;;8.15;3.60;;;;;;;33.04;22.43;94204.31;5011123;28;20177;-66
2022/07/15 06:58:42;;;;;;;5.85;3.72;;;;;;;31.62;23.93;94199.69;5011616;28;20056;-64
2022/07/15 07:01:09;;;;;;;6.77;3.90;;;;;;;32.57;22.92;94213.03;5010877;28;20413;-68
2022/07/15 07:03:36;;;;;;;7.63;3.50;;;;;;;33.45;22.01;94209.72;5011122;28;20053;-63
2022/07/15 07:06:23;;;;;;;5.47;3.30;;;;;;;35.17;20.06;94209.00;5010039;28;20045;-63
2022/07/15 07:08:52;;;;;;;5.82;3.08;;;;;;;33.85;20.71;94212.19;5009269;28;20046;-67
2022/07/15 07:11:19;;;;;;;6.40;3.20;;;;;;;33.02;21.67;94209.03;5011066;28;20053;-64
2022/07/15 07:13:47;;;;;;;4.43;2.97;;;;;;;33.83;21.56;94204.97;5011591;28;20056;-63
2022/07/15 07:16:14;;;;;;;6.50;3.20;;;;;;;33.94;21.25;94198.16;5010489;28;20052;-64
2022/07/15 07:18:41;;;;;;;5.47;2.92;;;;;;;35.17;19.63;94198.34;5011334;28;20081;-67
2022/07/15 07:21:08;;;;;;;6.57;3.08;;;;;;;35.61;19.11;94198.03;5010506;28;20414;-67
2022/07/15 07:23:35;;;;;;;7.93;3.00;;;;;;;34.16;19.98;94205.28;5007717;28;20052;-67
2022/07/15 07:26:03;;;;;;;4.13;2.83;;;;;;;34.53;20.04;94202.31;5010921;28;20505;-61
2022/07/15 07:28:30;;;;;;;5.15;3.00;;;;;;;36.17;18.73;94200.13;5011126;28;20111;-63
2022/07/15 07:30:56;;;;;;;7.45;2.90;;;;;;;37.63;17.21;94187.53;4996789;28;20048;-64
2022/07/15 07:33:23;;;;;;;5.80;2.72;;;;;;;38.04;16.31;94195.81;5006170;28;20053;-66
2022/07/15 07:35:51;;;;;;;4.97;2.83;;;;;;;37.91;16.31;94185.44;4987702;28;20042;-64
2022/07/15 07:38:19;;;;;;;6.87;2.60;;;;;;;38.75;15.53;94192.88;4997831;28;20067;-63
2022/07/15 07:40:49;;;;;;;5.85;2.60;;;;;;;37.17;16.60;94188.75;4992541;28;20052;-65
2022/07/15 07:43:18;;;;;;;5.75;2.78;;;;;;;35.19;19.14;94192.84;5006067;28;20052;-65
2022/07/15 07:45:46;;;;;;;5.65;2.80;;;;;;;34.30;18.96;94193.72;5010322;28;20093;-65
2022/07/15 07:48:13;;;;;;;4.95;2.70;;;;;;;36.19;17.77;94183.16;5009862;28;20057;-69
2022/07/15 07:50:40;;;;;;;5.07;2.80;;;;;;;34.91;18.44;94185.22;5010401;28;20372;-63
2022/07/15 07:53:07;;;;;;;6.55;3.08;;;;;;;33.79;19.29;94186.75;5010040;28;20041;-67
2022/07/15 07:55:34;;;;;;;6.22;2.85;;;;;;;35.99;17.68;94179.25;5010161;28;20041;-63
2022/07/15 07:58:01;;;;;;;5.13;2.60;;;;;;;37.09;16.44;94182.31;5009363;28;20107;-62
2022/07/15 08:00:29;;;;;;;5.32;2.72;;;;;;;35.83;18.17;94180.66;5009975;28;20046;-65
2022/07/15 08:02:57;;;;;;;5.97;2.83;;;;;;;37.06;16.42;94179.84;5011107;28;20057;-63
2022/07/15 08:05:25;;;;;;;5.45;3.00;;;;;;;34.07;19.46;94182.25;5010362;28;20056;-65
2022/07/15 08:08:11;;;;;;;7.13;3.08;;;;;;;33.36;20.21;94186.16;5010652;28;20046;-63
2022/07/15 08:10:39;;;;;;;5.57;2.70;;;;;;;33.63;20.09;94183.09;5009846;28;21725;-67
2022/07/15 08:13:13;;;;;;;4.85;3.10;;;;;;;34.67;18.81;94182.97;5010339;28;20103;-64
2022/07/15 08:15:40;;;;;;;5.27;3.00;;;;;;;36.26;17.27;94181.59;5010333;28;20050;-65
2022/07/15 08:18:07;;;;;;;5.90;3.10;;;;;;;32.97;20.31;94181.53;5010001;28;20069;-63
2022/07/15 08:20:35;;;;;;;5.18;2.88;;;;;;;33.93;19.04;94187.38;5010301;28;20049;-64
2022/07/15 08:23:04;;;;;;;6.88;3.40;;;;;;;34.86;18.28;94189.03;5009905;28;20144;-65
2022/07/15 08:25:34;;;;;;;6.05;3.40;;;;;;;33.65;19.11;94180.44;5010218;28;20394;-67
2022/07/15 08:28:00;;;;;;;5.70;3.30;;;;;;;33.34;20.08;94180.25;5009980;28;20046;-64
2022/07/15 08:30:29;;;;;;;4.88;3.10;;;;;;;35.04;18.23;94180.66;5009219;28;20766;-64
2022/07/15 08:32:57;;;;;;;5.43;3.40;;;;;;;32.99;20.10;94176.78;5010374;28;20057;-67
2022/07/15 08:35:25;;;;;;;4.85;3.30;;;;;;;31.08;22.73;94179.13;5022287;28;20049;-66
2022/07/15 08:37:52;;;;;;;4.90;3.40;;;;;;;32.04;21.73;94169.34;5008565;28;20513;-68
2022/07/15 08:40:19;;;;;;;6.23;3.30;;;;;;;31.39;23.02;94180.28;4997926;28;20052;-63
2022/07/15 08:42:47;;;;;;;6.18;3.40;;;;;;;33.94;20.34;94178.25;5010270;28;20046;-64
2022/07/15 08:45:16;;;;;;;5.63;3.20;;;;;;;36.59;17.06;94182.31;5009678;28;20053;-64
2022/07/15 08:47:46;;;;;;;6.18;2.95;;;;;;;37.04;16.51;94176.81;5010021;28;20048;-67
2022/07/15 08:50:21;;;;;;;5.60;3.10;;;;;;;37.43;16.74;94178.00;5009334;28;20042;-65
2022/07/15 08:52:48;;;;;;;6.47;3.13;;;;;;;36.36;17.37;94176.75;5004026;28;20052;-64
2022/07/15 08:55:18;;;;;;;5.85;2.90;;;;;;;35.27;19.04;94184.25;5009546;28;20049;-63
2022/07/15 08:57:50;;;;;;;5.95;3.40;;;;;;;33.23;20.50;94180.56;5003532;28;20065;-66
2022/07/15 09:00:17;;;;;;;4.80;3.40;;;;;;;33.22;20.82;94170.50;4990281;28;20046;-63
2022/07/15 09:02:44;;;;;;;5.72;3.28;;;;;;;35.91;18.48;94176.44;5008557;28;20085;-65
2022/07/15 09:05:28;;;;;;;6.03;3.13;;;;;;;36.22;17.41;94186.94;5009365;28;20053;-63
2022/07/15 09:08:02;;;;;;;6.80;3.15;;;;;;;36.94;17.05;94180.34;5010221;28;20042;-63
2022/07/15 09:10:57;;;;;;;6.32;3.38;;;;;;;38.82;15.72;94185.53;5039275;28;20757;-64
2022/07/15 09:13:27;;;;;;;6.55;3.30;;;;;;;37.88;16.12;94181.66;5004523;28;20041;-63
2022/07/15 09:15:55;;;;;;;5.22;3.00;;;;;;;38.51;16.52;94188.09;4997370;28;20034;-69
2022/07/15 09:18:29;;;;;;;5.00;3.20;;;;;;;37.60;16.40;94185.06;4993698;28;20444;-69
2022/07/15 09:20:57;;;;;;;6.43;3.30;;;;;;;39.91;14.76;94190.88;5008180;28;20046;-63
2022/07/15 09:23:29;;;;;;;6.72;3.20;;;;;;;35.39;18.27;94188.19;4997127;28;20038;-63
2022/07/15 09:25:58;;;;;;;6.70;3.13;;;;;;;36.15;18.21;94185.66;5013438;28;20050;-67
2022/07/15 09:28:40;;;;;;;6.13;3.20;;;;;;;34.32;20.01;94186.13;5012466;28;20068;-66
2022/07/15 09:34:02;;;;;;;5.95;3.20;;;;;;;35.79;18.08;94186.78;5014842;28;20120;-63
2022/07/15 09:36:32;;;;;;;7.43;3.60;;;;;;;36.37;17.10;94186.88;5012429;28;20680;-63
2022/07/15 09:39:04;;;;;;;5.63;3.67;;;;;;;37.10;16.97;94183.81;5013203;28;20151;-67
2022/07/15 09:41:33;;;;;;;4.97;3.33;;;;;;;37.71;16.53;94182.47;5009253;28;20452;-69
2022/07/15 09:44:07;;;;;;;4.50;3.20;;;;;;;38.46;15.50;94178.41;5007935;28;20097;-63
2022/07/15 09:46:56;;;;;;;5.40;3.20;;;;;;;40.04;14.39;94186.78;5012251;28;20867;-64
2022/07/15 09:49:23;;;;;;;4.82;3.05;;;;;;;41.15;13.40;94180.22;5012721;28;20041;-64
2022/07/15 09:52:00;;;;;;;4.88;3.10;;;;;;;38.27;14.79;94181.19;5000942;28;20050;-63
2022/07/15 09:54:32;;;;;;;5.32;3.05;;;;;;;36.17;17.01;94183.00;5010728;28;20652;-65
2022/07/15 09:57:04;;;;;;;4.83;3.30;;;;;;;34.77;18.66;94184.69;5012944;28;20050;-67
2022/07/15 09:59:31;;;;;;;7.60;3.70;;;;;;;37.31;16.84;94176.97;5012053;28;20126;-68
2022/07/15 10:02:05;;;;;;;5.25;3.30;;;;;;;32.93;21.00;94179.03;5019184;28;20045;-72
2022/07/15 10:04:32;;;;;;;5.40;3.42;;;;;;;34.50;19.24;94175.72;5015143;28;20055;-63
2022/07/15 10:07:00;;;;;;;6.25;3.67;;;;;;;34.10;19.09;94172.59;5012747;28;20062;-63
2022/07/15 10:09:47;;;;;;;5.40;3.83;;;;;;;31.82;21.67;94170.63;5011591;28;20852;-63
2022/07/15 10:12:24;;;;;;;6.20;3.80;;;;;;;32.44;21.38;94163.47;5011966;28;20388;-66
2022/07/15 10:15:00;;;;;;;4.72;3.63;;;;;;;35.65;18.30;94165.47;5012313;28;20060;-69
2022/07/15 10:17:48;;;;;;;6.07;3.72;;;;;;;37.17;16.58;94159.38;5011842;28;20849;-63
2022/07/15 10:20:46;;;;;;;7.15;3.85;;;;;;;37.33;16.08;94162.84;5010593;28;20041;-72
2022/07/15 10:23:28;;;;;;;4.87;3.27;;;;;;;39.02;14.97;94165.50;5011927;28;20387;-69
2022/07/15 10:26:24;;;;;;;5.80;3.60;;;;;;;35.07;17.99;94157.44;5012171;28;20045;-66
2022/07/15 10:28:58;;;;;;;9.65;3.70;;;;;;;28.77;26.00;94157.78;5011355;28;20489;-65
2022/07/15 10:31:31;;;;;;;6.63;3.83;;;;;;;28.65;25.47;94159.22;5011900;28;20069;-65
2022/07/15 10:34:07;;;;;;;7.32;3.92;;;;;;;30.94;22.46;94146.41;5014810;28;20038;-65
2022/07/15 10:36:45;;;;;;;6.07;3.40;;;;;;;32.86;20.30;94145.66;5011233;28;21737;-64
2022/07/15 10:39:17;;;;;;;6.65;3.55;;;;;;;32.02;21.51;94151.38;4995296;28;20433;-64
2022/07/15 10:42:06;;;;;;;6.00;3.50;;;;;;;31.54;21.84;94151.38;5001672;28;20513;-65
2022/07/15 10:44:47;;;;;;;6.30;3.88;;;;;;;30.23;23.07;94146.59;5011098;28;20337;-67
2022/07/15 10:47:14;;;;;;;8.27;3.97;;;;;;;30.83;22.46;94150.22;5001340;28;20050;-63
2022/07/15 10:49:42;;;;;;;7.07;3.90;;;;;;;30.44;22.99;94143.19;5006489;28;20050;-64
2022/07/15 10:52:25;;;;;;;6.40;4.07;;;;;;;30.50;22.95;94143.09;5011574;28;20052;-66
2022/07/15 10:54:54;;;;;;;6.50;3.92;;;;;;;30.60;23.43;94144.94;5011935;28;20487;-64
2022/07/15 10:57:41;;;;;;;5.97;3.72;;;;;;;31.33;21.96;94137.13;4997834;28;20076;-64
2022/07/15 11:00:19;;;;;;;6.80;4.20;;;;;;;27.57;26.52;94142.38;5011217;28;20060;-65
2022/07/15 11:03:20;;;;;;;9.47;4.40;;;;;;;28.00;26.22;94141.06;5017161;28;20465;-67
2022/07/15 11:05:58;;;;;;;7.63;4.10;;;;;;;28.40;26.46;94136.59;5010474;28;20668;-64
2022/07/15 11:08:42;;;;;;;6.53;3.85;;;;;;;29.13;25.40;94135.06;5010519;28;20605;-63
2022/07/15 11:11:14;;;;;;;7.18;3.95;;;;;;;30.00;24.03;94131.28;5008990;28;20046;-65
2022/07/15 11:13:43;;;;;;;6.40;4.38;;;;;;;29.74;23.82;94138.38;5011367;28;20390;-63
2022/07/15 11:16:12;;;;;;;6.33;3.90;;;;;;;29.47;24.67;94138.22;5010640;28;20061;-69
2022/07/15 11:18:47;;;;;;;7.20;4.10;;;;;;;28.18;25.92;94140.38;5011483;28;20053;-67
2022/07/15 11:21:14;;;;;;;7.13;3.80;;;;;;;28.86;25.07;94134.09;5010726;28;20075;-63
2022/07/15 11:23:44;;;;;;;7.63;4.15;;;;;;;28.17;25.71;94138.09;5011030;28;20042;-63
2022/07/15 11:26:11;;;;;;;7.47;4.47;;;;;;;26.78;28.09;94133.50;5010686;28;20610;-63
2022/07/15 11:28:38;;;;;;;9.03;4.47;;;;;;;26.89;27.66;94127.84;5011080;28;20061;-68
2022/07/15 11:31:05;;;;;;;7.70;4.50;;;;;;;25.96;29.42;94129.03;5010627;28;20087;-65
2022/07/15 11:33:33;;;;;;;9.73;4.57;;;;;;;25.26;30.79;94123.06;5013450;28;20054;-66
2022/07/15 11:36:02;;;;;;;6.05;4.10;;;;;;;27.00;28.74;94122.16;5011034;28;20054;-64
2022/07/15 11:38:37;;;;;;;7.63;4.43;;;;;;;26.06;29.98;94121.88;5010059;28;20233;-67
2022/07/15 11:46:54;;;;;;;6.88;4.20;;;;;;;27.70;27.02;94117.16;5010133;28;20578;-65
2022/07/15 11:49:33;;;;;;;6.60;4.00;;;;;;;27.27;28.04;94114.13;5007198;28;20073;-69
2022/07/15 11:52:04;;;;;;;8.05;4.28;;;;;;;26.15;29.10;94106.78;5002579;28;20060;-63
2022/07/15 11:54:35;;;;;;;9.07;4.67;;;;;;;25.58;30.55;94112.38;5009901;28;21770;-62
2022/07/15 11:57:05;;;;;;;9.45;4.13;;;;;;;27.59;27.32;94105.22;5010276;28;20076;-67
2022/07/15 11:59:33;;;;;;;5.57;4.07;;;;;;;28.14;26.50;94114.53;5010711;28;20042;-65